Time;durP1;ratioP1;P1;durP2;ratioP2;P2;SDS_P1;SDS_P2;PMS_P1;PMS_P2;Temp;Humidity;BMP_temperature;BMP_pressure;BME280_temperature;BME280_humidity;BME280_pressure;Samples;Min_cycle;Max_cycle;Signal;HPM_P1;HPM_P2
2022/01/01 00:01:05;;;;;;;15.60;13.00;;;;;;;11.19;100.00;101287.06;7400142;19;20026;-67
2022/01/01 00:03:33;;;;;;;13.85;12.43;;;;;;;11.20;100.00;101286.19;7400990;19;20036;-68
2022/01/01 00:06:03;;;;;;;15.55;12.95;;;;;;;11.20;100.00;101294.06;7399285;19;20023;-68
2022/01/01 00:08:32;;;;;;;17.15;14.45;;;;;;;11.20;100.00;101287.03;7401237;19;20026;-67
2022/01/01 00:11:00;;;;;;;17.52;13.32;;;;;;;11.21;100.00;101286.16;7400779;19;20022;-66
2022/01/01 00:13:28;;;;;;;14.85;13.02;;;;;;;11.22;100.00;101292.25;7400714;19;20033;-67
2022/01/01 00:15:56;;;;;;;16.48;13.20;;;;;;;11.24;100.00;101286.09;7399268;19;20015;-67
2022/01/01 00:18:24;;;;;;;15.57;12.23;;;;;;;11.24;100.00;101279.97;7400556;19;20037;-68
2022/01/01 00:20:52;;;;;;;14.57;12.60;;;;;;;11.23;99.01;101283.50;7400067;19;20040;-68
2022/01/01 00:23:23;;;;;;;14.75;12.38;;;;;;;11.24;99.75;101296.59;7400207;19;20041;-67
2022/01/01 00:25:51;;;;;;;16.98;12.82;;;;;;;11.27;99.99;101300.06;7398559;19;20018;-67
2022/01/01 00:28:20;;;;;;;16.35;13.32;;;;;;;11.27;99.52;101319.31;7400027;19;20026;-67
2022/01/01 00:30:48;;;;;;;14.90;13.27;;;;;;;11.27;99.64;101298.31;7398437;19;20036;-67
2022/01/01 00:33:16;;;;;;;17.20;14.18;;;;;;;11.28;98.92;101307.06;7399998;19;20010;-67
2022/01/01 00:35:44;;;;;;;14.98;12.65;;;;;;;11.31;99.59;101322.78;7398255;19;20042;-67
2022/01/01 00:38:13;;;;;;;14.95;12.93;;;;;;;11.31;98.65;101312.25;7400010;19;20011;-67
2022/01/01 00:40:44;;;;;;;17.75;13.45;;;;;;;11.30;99.33;101321.91;7399825;19;20036;-67
2022/01/01 00:43:13;;;;;;;15.23;13.02;;;;;;;11.32;99.11;101309.63;7400164;19;20015;-67
2022/01/01 00:45:41;;;;;;;14.32;11.65;;;;;;;11.34;98.83;101322.75;7398162;19;20044;-67
2022/01/01 00:48:09;;;;;;;17.58;14.02;;;;;;;11.34;98.21;101322.75;7399432;19;20033;-67
2022/01/01 00:50:38;;;;;;;16.65;12.43;;;;;;;11.36;98.22;101328.81;7399768;19;20019;-67
2022/01/01 00:53:06;;;;;;;14.00;12.02;;;;;;;11.36;98.52;101332.34;7399213;19;20022;-66
2022/01/01 00:55:34;;;;;;;15.55;12.20;;;;;;;11.36;98.29;101334.06;7398060;19;20036;-67
2022/01/01 00:58:05;;;;;;;13.32;11.82;;;;;;;11.37;97.99;101341.97;7398800;19;20387;-67
2022/01/01 01:00:33;;;;;;;14.48;12.00;;;;;;;11.38;98.54;101340.19;7399472;19;20015;-67
2022/01/01 01:03:02;;;;;;;12.25;11.00;;;;;;;11.39;98.46;101344.56;7396864;19;20014;-67
2022/01/01 01:05:30;;;;;;;11.75;10.55;;;;;;;11.40;98.80;101349.78;7397911;19;20046;-67
2022/01/01 01:07:58;;;;;;;13.73;10.27;;;;;;;11.40;98.37;101368.16;7398692;19;20010;-68
2022/01/01 01:10:26;;;;;;;15.90;11.68;;;;;;;11.40;98.29;101360.28;7398761;19;20040;-68
2022/01/01 01:12:54;;;;;;;12.57;11.27;;;;;;;11.39;99.22;101353.28;7398517;19;20023;-66
2022/01/01 01:15:25;;;;;;;17.08;13.00;;;;;;;11.36;99.07;101355.09;7397762;19;20361;-67
2022/01/01 01:17:56;;;;;;;19.40;13.32;;;;;;;11.33;99.18;101349.91;7399078;19;20022;-72
2022/01/01 01:20:26;;;;;;;18.13;13.63;;;;;;;11.31;99.71;101362.19;7398484;19;20022;-70
2022/01/01 01:22:54;;;;;;;15.70;12.57;;;;;;;11.29;99.48;101374.47;7396173;19;20451;-68
2022/01/01 01:25:24;;;;;;;16.98;13.32;;;;;;;11.27;99.13;101368.38;7397439;19;20048;-68
2022/01/01 01:27:53;;;;;;;15.75;13.10;;;;;;;11.25;99.69;101366.63;7398337;19;20014;-68
2022/01/01 01:30:22;;;;;;;17.25;13.32;;;;;;;11.24;99.80;101374.53;7397045;19;20014;-66
2022/01/01 01:32:53;;;;;;;17.05;13.73;;;;;;;11.20;99.29;101376.34;7398503;19;20022;-67
2022/01/01 01:35:21;;;;;;;19.38;14.38;;;;;;;11.21;99.91;101382.47;7397493;19;20023;-67
2022/01/01 01:37:50;;;;;;;17.65;14.15;;;;;;;11.19;99.86;101385.09;7397019;19;20018;-67
2022/01/01 01:40:18;;;;;;;20.42;14.60;;;;;;;11.19;99.93;101381.63;7397895;19;20025;-67
2022/01/01 01:42:46;;;;;;;22.45;15.10;;;;;;;11.19;99.67;101392.13;7396325;19;20035;-67
2022/01/01 01:45:19;;;;;;;22.25;14.85;;;;;;;11.19;100.00;101394.75;7397019;19;20040;-67
2022/01/01 01:47:49;;;;;;;23.67;15.88;;;;;;;11.20;100.00;101404.38;7398014;19;20018;-67
2022/01/01 01:50:22;;;;;;;18.77;15.75;;;;;;;11.19;99.53;101410.50;7397416;19;20368;-67
2022/01/01 01:52:53;;;;;;;23.85;16.23;;;;;;;11.20;99.64;101409.63;7397931;19;20018;-67
2022/01/01 01:55:21;;;;;;;19.42;14.85;;;;;;;11.21;99.43;101406.97;7397022;19;20021;-67
2022/01/01 01:57:51;;;;;;;21.63;15.82;;;;;;;11.21;98.82;101411.38;7397308;19;20014;-67
2022/01/01 02:00:44;;;;;;;17.75;13.88;;;;;;;11.23;99.35;101413.09;7397123;19;20015;-67
2022/01/01 02:03:13;;;;;;;22.50;16.88;;;;;;;11.24;99.32;101412.16;7395701;19;20011;-66
2022/01/01 02:05:46;;;;;;;22.48;15.23;;;;;;;11.25;99.31;101413.91;7396279;19;20015;-67
2022/01/01 02:08:14;;;;;;;21.05;14.43;;;;;;;11.26;98.43;101420.06;7397553;19;20019;-67
2022/01/01 02:10:43;;;;;;;18.73;13.20;;;;;;;11.27;97.60;101415.66;7397471;19;20040;-68
2022/01/01 02:13:19;;;;;;;20.40;14.45;;;;;;;11.29;98.21;101419.13;7398190;19;20487;-67
2022/01/01 02:16:10;;;;;;;20.67;13.73;;;;;;;11.31;98.31;101427.84;7396020;19;20036;-67
2022/01/01 02:18:36;;;;;;;18.52;13.60;;;;;;;11.31;97.55;101431.38;7397583;19;20464;-67
2022/01/01 02:21:07;;;;;;;19.73;12.45;;;;;;;11.32;97.62;101429.59;7396836;19;20018;-66
2022/01/01 02:23:39;;;;;;;16.33;11.90;;;;;;;11.33;96.67;101432.19;7395052;19;20035;-66
2022/01/01 02:26:09;;;;;;;17.02;12.65;;;;;;;11.34;97.05;101439.19;7395215;19;20022;-66
2022/01/01 02:28:38;;;;;;;20.10;13.13;;;;;;;11.36;97.78;101437.41;7396431;19;20015;-68
2022/01/01 02:31:06;;;;;;;18.48;12.70;;;;;;;11.37;97.48;101438.28;7395018;19;20374;-66
2022/01/01 02:33:34;;;;;;;17.55;12.30;;;;;;;11.38;97.85;101455.78;7395897;19;20519;-66
2022/01/01 02:36:02;;;;;;;15.63;11.88;;;;;;;11.39;97.87;101450.50;7394958;19;20022;-68
2022/01/01 02:38:40;;;;;;;17.75;12.27;;;;;;;11.36;95.93;101447.03;7395991;19;20014;-68
2022/01/01 02:41:08;;;;;;;18.48;12.10;;;;;;;11.39;97.19;101441.75;7396422;19;20014;-67
2022/01/01 02:43:46;;;;;;;17.67;11.85;;;;;;;11.31;95.59;101441.88;7394394;19;20031;-67
2022/01/01 02:46:14;;;;;;;17.73;11.77;;;;;;;11.38;95.77;101445.28;7394894;19;20035;-67
2022/01/01 02:48:44;;;;;;;15.95;11.50;;;;;;;11.40;97.33;101435.63;7395881;19;20345;-67
2022/01/01 02:51:12;;;;;;;17.38;10.50;;;;;;;11.40;96.67;101446.13;7393016;19;20500;-67
2022/01/01 02:53:46;;;;;;;17.02;11.63;;;;;;;11.38;95.70;101438.25;7395534;19;20021;-65
2022/01/01 02:56:15;;;;;;;15.75;11.02;;;;;;;11.40;95.69;101454.00;7394430;19;20212;-68
2022/01/01 02:58:44;;;;;;;20.00;11.57;;;;;;;11.41;96.78;101434.72;7395664;19;20141;-67
2022/01/01 03:01:19;;;;;;;18.58;10.80;;;;;;;11.41;96.30;101446.09;7395008;19;20363;-65
2022/01/01 03:03:48;;;;;;;17.23;10.38;;;;;;;11.41;95.68;101445.22;7394240;19;20033;-65
2022/01/01 03:06:19;;;;;;;14.27;9.52;;;;;;;11.41;97.04;101458.34;7393872;19;20032;-68
2022/01/01 03:08:52;;;;;;;18.05;10.25;;;;;;;11.41;96.01;101447.84;7395398;19;20015;-67
2022/01/01 03:11:21;;;;;;;14.43;10.85;;;;;;;11.42;95.81;101457.47;7395040;19;20101;-67
2022/01/01 03:13:50;;;;;;;14.13;10.15;;;;;;;11.43;95.55;101453.97;7394814;19;20014;-67
2022/01/01 03:16:18;;;;;;;13.98;10.13;;;;;;;11.44;96.23;101447.81;7393171;19;20382;-68
2022/01/01 03:18:46;;;;;;;16.50;10.65;;;;;;;11.44;95.27;101463.59;7394791;19;20018;-67
2022/01/01 03:21:14;;;;;;;15.30;10.32;;;;;;;11.43;94.62;101453.09;7394872;19;20020;-66
2022/01/01 03:23:43;;;;;;;18.58;9.98;;;;;;;11.44;94.60;101466.22;7393135;19;20037;-68
2022/01/01 03:26:13;;;;;;;17.50;11.07;;;;;;;11.43;95.97;101459.22;7393085;19;20362;-67
2022/01/01 03:28:42;;;;;;;15.63;10.43;;;;;;;11.44;95.65;101471.47;7394678;19;20015;-68
2022/01/01 03:31:10;;;;;;;17.17;10.88;;;;;;;11.42;96.52;101467.97;7392521;19;20509;-66
2022/01/01 03:33:38;;;;;;;15.73;10.90;;;;;;;11.40;96.52;101464.53;7394365;19;20011;-68
2022/01/01 03:36:07;;;;;;;16.90;10.57;;;;;;;11.39;96.76;101478.53;7393206;19;20019;-65
2022/01/01 03:38:35;;;;;;;16.10;11.10;;;;;;;11.37;96.18;101477.69;7394390;19;20014;-67
2022/01/01 03:41:03;;;;;;;19.85;12.13;;;;;;;11.36;97.00;101482.09;7394238;19;20034;-66
2022/01/01 03:43:34;;;;;;;18.05;12.10;;;;;;;11.35;97.40;101482.97;7392735;19;20041;-67
2022/01/01 03:46:02;;;;;;;17.20;12.30;;;;;;;11.36;97.57;101489.06;7393030;19;20018;-66
2022/01/01 03:48:31;;;;;;;15.07;11.23;;;;;;;11.35;97.92;101488.22;7393761;19;20483;-67
2022/01/01 03:50:59;;;;;;;16.92;11.23;;;;;;;11.34;97.81;101491.72;7394011;19;20018;-66
2022/01/01 03:53:27;;;;;;;17.30;11.20;;;;;;;11.34;98.02;101480.38;7394023;19;20092;-67
2022/01/01 03:55:55;;;;;;;20.67;12.40;;;;;;;11.33;98.04;101483.88;7392279;19;20479;-67
2022/01/01 03:58:24;;;;;;;20.55;12.35;;;;;;;11.33;98.34;101484.72;7394037;19;20044;-67
2022/01/01 04:00:55;;;;;;;18.63;11.43;;;;;;;11.32;98.32;101485.66;7394371;19;20041;-66
2022/01/01 04:03:24;;;;;;;23.80;12.32;;;;;;;11.31;97.96;101489.16;7399490;19;20021;-65
2022/01/01 04:05:52;;;;;;;25.35;14.05;;;;;;;11.30;97.17;101489.16;7399594;19;20026;-68
2022/01/01 04:08:20;;;;;;;21.77;13.52;;;;;;;11.30;98.17;101499.66;7401050;19;20010;-66
2022/01/01 04:10:48;;;;;;;25.90;13.98;;;;;;;11.29;98.25;101495.31;7400817;19;20015;-67
2022/01/01 04:13:16;;;;;;;17.65;12.00;;;;;;;11.29;97.84;101497.94;7400778;19;20021;-66
2022/01/01 04:15:45;;;;;;;17.05;10.88;;;;;;;11.27;97.28;101497.94;7399147;19;20365;-67
2022/01/01 04:18:25;;;;;;;19.15;10.60;;;;;;;11.25;97.97;101491.84;7401443;19;20011;-67
2022/01/01 04:20:54;;;;;;;17.50;10.70;;;;;;;11.27;97.10;101502.34;7401206;19;20024;-67
2022/01/01 04:23:23;;;;;;;20.17;11.13;;;;;;;11.28;96.79;101511.97;7399638;19;20022;-67
2022/01/01 04:25:52;;;;;;;19.83;11.27;;;;;;;11.27;96.57;101494.47;7399329;19;20032;-67
2022/01/01 04:28:20;;;;;;;17.08;11.27;;;;;;;11.27;97.16;101502.34;7400196;19;20014;-67
2022/01/01 04:30:49;;;;;;;18.40;10.60;;;;;;;11.28;95.38;101501.47;7399171;19;20030;-67
2022/01/01 04:33:19;;;;;;;15.80;10.32;;;;;;;11.29;96.62;101518.97;7400067;19;20010;-66
2022/01/01 04:35:48;;;;;;;20.23;10.77;;;;;;;11.28;95.79;101512.81;7399253;19;20030;-67
2022/01/01 04:38:30;;;;;;;15.70;9.73;;;;;;;11.29;96.52;101522.44;7400127;19;20026;-67
2022/01/01 04:40:59;;;;;;;13.93;9.60;;;;;;;11.30;96.15;101525.94;7399751;19;20029;-65
2022/01/01 04:43:27;;;;;;;14.80;9.55;;;;;;;11.31;96.51;101525.94;7398757;19;20036;-67
2022/01/01 04:45:55;;;;;;;16.88;9.93;;;;;;;11.32;96.56;101532.03;7398408;19;20011;-66
2022/01/01 04:48:26;;;;;;;17.10;9.68;;;;;;;11.31;95.40;101517.16;7399637;19;20014;-67
2022/01/01 04:50:55;;;;;;;16.42;9.98;;;;;;;11.31;95.81;101502.28;7400595;19;20011;-67
2022/01/01 04:53:23;;;;;;;13.05;9.40;;;;;;;11.32;96.18;101493.53;7399651;19;20018;-66
2022/01/01 04:55:52;;;;;;;15.65;9.73;;;;;;;11.32;96.84;101498.78;7398357;19;20018;-66
2022/01/01 04:58:20;;;;;;;13.93;9.35;;;;;;;11.33;95.82;101515.41;7399480;19;20006;-66
2022/01/01 05:00:48;;;;;;;14.63;9.85;;;;;;;11.32;95.36;101522.44;7399180;19;20018;-67
2022/01/01 05:03:16;;;;;;;16.92;9.93;;;;;;;11.33;95.06;101528.53;7398155;19;20018;-66
2022/01/01 05:05:47;;;;;;;15.10;9.45;;;;;;;11.32;94.74;101525.06;7397919;19;20031;-66
2022/01/01 05:08:15;;;;;;;12.48;8.95;;;;;;;11.34;94.89;101536.38;7399564;19;20352;-67
2022/01/01 05:10:43;;;;;;;14.10;9.00;;;;;;;11.35;95.56;101521.53;7398619;19;20375;-66
2022/01/01 05:13:13;;;;;;;19.58;9.35;;;;;;;11.35;94.65;101519.75;7396470;19;20015;-66
2022/01/01 05:15:41;;;;;;;16.48;9.05;;;;;;;11.36;93.66;101531.09;7397722;19;20040;-66
2022/01/01 05:18:10;;;;;;;14.95;9.27;;;;;;;11.37;94.84;101532.84;7398743;19;20032;-67
2022/01/01 05:20:38;;;;;;;17.20;8.75;;;;;;;11.38;94.60;101531.97;7398454;19;20037;-67
2022/01/01 05:23:09;;;;;;;14.20;8.55;;;;;;;11.36;93.82;101532.00;7397402;19;20014;-65
2022/01/01 05:25:37;;;;;;;14.10;8.23;;;;;;;11.39;93.77;101536.34;7397783;19;20018;-65
2022/01/01 05:28:05;;;;;;;18.17;10.32;;;;;;;11.39;93.67;101545.09;7398302;19;20015;-66
2022/01/01 05:30:34;;;;;;;17.15;7.90;;;;;;;11.41;95.03;101542.44;7397410;19;20022;-66
2022/01/01 05:33:08;;;;;;;12.98;7.57;;;;;;;11.39;91.88;101549.47;7396319;19;20006;-66
2022/01/01 05:35:36;;;;;;;17.15;8.65;;;;;;;11.41;94.11;101545.94;7397261;19;20018;-66
2022/01/01 05:38:04;;;;;;;16.17;8.20;;;;;;;11.41;93.74;101545.94;7397982;19;20046;-66
2022/01/01 05:40:35;;;;;;;14.40;8.45;;;;;;;11.43;94.88;101555.56;7398002;19;20015;-67
2022/01/01 05:43:03;;;;;;;12.75;9.07;;;;;;;11.43;93.69;101552.94;7397786;19;20011;-66
2022/01/01 05:45:32;;;;;;;14.75;8.23;;;;;;;11.43;93.42;101561.69;7396624;19;20487;-66
2022/01/01 05:48:00;;;;;;;13.95;9.52;;;;;;;11.43;92.51;101569.56;7397385;19;20375;-66
2022/01/01 05:50:28;;;;;;;13.45;8.75;;;;;;;11.43;92.95;101574.81;7398127;19;20015;-67
2022/01/01 05:52:56;;;;;;;15.25;8.65;;;;;;;11.44;93.28;101579.19;7397554;19;20040;-66
2022/01/01 05:55:24;;;;;;;15.45;9.05;;;;;;;11.44;93.75;101570.44;7396754;19;20018;-66
2022/01/01 05:57:55;;;;;;;14.85;8.18;;;;;;;11.45;93.14;101573.06;7397407;19;20018;-66
2022/01/01 06:00:23;;;;;;;14.57;7.90;;;;;;;11.46;93.36;101580.06;7397829;19;20014;-67
2022/01/01 06:02:52;;;;;;;13.52;8.23;;;;;;;11.47;93.60;101579.16;7396957;19;20011;-67
2022/01/01 06:05:20;;;;;;;13.98;7.95;;;;;;;11.47;93.60;101579.16;7396467;19;20015;-67
2022/01/01 06:07:48;;;;;;;14.25;8.73;;;;;;;11.47;93.41;101576.50;7397084;19;20022;-66
2022/01/01 06:10:17;;;;;;;17.67;8.98;;;;;;;11.48;93.54;101574.78;7397035;19;20019;-66
2022/01/01 06:12:45;;;;;;;18.33;9.48;;;;;;;11.47;92.97;101583.53;7396962;19;20014;-67
2022/01/01 06:15:16;;;;;;;17.27;8.70;;;;;;;11.48;93.20;101590.53;7396040;19;20040;-66
2022/01/01 06:17:44;;;;;;;18.63;9.15;;;;;;;11.48;92.97;101599.28;7396430;19;20508;-67
2022/01/01 06:20:14;;;;;;;15.80;8.57;;;;;;;11.48;92.81;101604.53;7396705;19;20018;-66
2022/01/01 06:22:42;;;;;;;13.80;9.02;;;;;;;11.49;93.29;101602.81;7396207;19;20479;-67
2022/01/01 06:25:11;;;;;;;12.98;8.60;;;;;;;11.48;91.91;101604.53;7395028;19;20427;-66
2022/01/01 06:27:39;;;;;;;13.50;8.82;;;;;;;11.49;92.03;101605.44;7396413;19;20036;-66
2022/01/01 06:30:09;;;;;;;13.73;8.73;;;;;;;11.49;92.99;101600.16;7396449;19;20015;-66
2022/01/01 06:32:40;;;;;;;18.15;10.15;;;;;;;11.48;92.28;101607.16;7394440;19;20003;-66
2022/01/01 06:35:09;;;;;;;13.95;9.38;;;;;;;11.49;91.43;101610.69;7395370;19;20508;-66
2022/01/01 06:37:37;;;;;;;19.25;10.00;;;;;;;11.49;92.48;101611.53;7396243;19;20040;-66
2022/01/01 06:40:07;;;;;;;17.58;9.85;;;;;;;11.52;93.02;101613.25;7395937;19;20014;-66
2022/01/01 06:42:35;;;;;;;14.18;9.25;;;;;;;11.52;92.69;101621.16;7395966;19;20037;-66
2022/01/01 06:45:03;;;;;;;18.13;10.93;;;;;;;11.52;92.01;101621.16;7393817;19;20505;-66
2022/01/01 06:47:31;;;;;;;16.00;9.73;;;;;;;11.52;92.03;101623.78;7395482;19;20401;-66
2022/01/01 06:50:02;;;;;;;18.00;10.68;;;;;;;11.51;91.05;101622.91;7395793;19;20015;-66
2022/01/01 06:52:30;;;;;;;16.75;10.25;;;;;;;11.52;92.60;101627.25;7396316;19;20089;-67
2022/01/01 06:54:58;;;;;;;13.10;10.02;;;;;;;11.54;92.50;101632.53;7395432;19;20480;-67
2022/01/01 06:57:26;;;;;;;15.30;10.30;;;;;;;11.54;92.64;101637.78;7395533;19;20014;-67
2022/01/01 06:59:55;;;;;;;14.00;9.10;;;;;;;11.54;92.83;101627.25;7395430;19;20044;-68
2022/01/01 07:02:23;;;;;;;16.92;10.45;;;;;;;11.53;92.00;101630.78;7395364;19;20022;-67
2022/01/01 07:04:51;;;;;;;18.52;10.48;;;;;;;11.54;92.74;101641.25;7393823;19;20015;-67
2022/01/01 07:07:22;;;;;;;18.98;10.43;;;;;;;11.55;93.13;101637.75;7395312;19;20028;-67
2022/01/01 07:09:50;;;;;;;16.35;9.70;;;;;;;11.54;92.06;101629.91;7395789;19;20014;-67
2022/01/01 07:12:18;;;;;;;19.23;10.38;;;;;;;11.54;92.15;101635.16;7395161;19;20014;-67
2022/01/01 07:14:46;;;;;;;18.17;10.77;;;;;;;11.55;92.62;101642.13;7394843;19;20015;-67
2022/01/01 07:17:14;;;;;;;17.60;9.90;;;;;;;11.54;92.92;101648.28;7395119;19;20011;-67
2022/01/01 07:19:43;;;;;;;14.23;9.15;;;;;;;11.54;92.96;101628.13;7394997;19;20014;-67
2022/01/01 07:22:11;;;;;;;13.65;10.13;;;;;;;11.54;92.51;101632.53;7394768;19;20017;-67
2022/01/01 07:24:42;;;;;;;14.77;9.50;;;;;;;11.52;91.25;101635.13;7393391;19;20010;-67
2022/01/01 07:27:10;;;;;;;17.95;10.07;;;;;;;11.52;90.14;101648.28;7395209;19;20013;-67
2022/01/01 07:29:38;;;;;;;15.57;8.93;;;;;;;11.53;92.75;101644.78;7394725;19;20018;-67
2022/01/01 07:32:07;;;;;;;13.20;9.40;;;;;;;11.53;92.63;101641.28;7393334;19;20011;-67
2022/01/01 07:34:35;;;;;;;14.82;8.98;;;;;;;11.51;92.34;101651.81;7394413;19;20014;-66
2022/01/01 07:37:04;;;;;;;17.65;9.60;;;;;;;11.52;92.35;101657.94;7398964;19;20015;-67
2022/01/01 07:39:32;;;;;;;14.57;8.68;;;;;;;11.53;92.27;101663.16;7402176;19;20040;-67
2022/01/01 07:42:03;;;;;;;13.23;9.23;;;;;;;11.53;90.43;101676.31;7402083;19;20040;-67
2022/01/01 07:44:31;;;;;;;17.02;8.88;;;;;;;11.55;91.36;101678.91;7400345;19;20015;-65
2022/01/01 07:47:00;;;;;;;14.02;8.65;;;;;;;11.56;91.97;101676.28;7401759;19;20011;-65
2022/01/01 07:49:29;;;;;;;16.67;9.52;;;;;;;11.56;90.49;101676.28;7401769;19;20044;-66
2022/01/01 07:51:57;;;;;;;13.48;10.10;;;;;;;11.57;91.19;101685.03;7401498;19;20015;-66
2022/01/01 07:54:25;;;;;;;15.23;8.52;;;;;;;11.58;90.25;101681.53;7401615;19;20036;-66
2022/01/01 07:56:53;;;;;;;17.80;8.90;;;;;;;11.59;90.73;101685.91;7398687;19;20014;-66
2022/01/01 07:59:24;;;;;;;16.40;8.88;;;;;;;11.59;91.21;101691.16;7401340;19;20022;-66
2022/01/01 08:01:52;;;;;;;18.65;9.88;;;;;;;11.62;91.24;101706.88;7400891;19;20483;-66
2022/01/01 08:04:20;;;;;;;17.05;9.68;;;;;;;11.62;89.88;101700.75;7399522;19;20504;-66
2022/01/01 08:06:49;;;;;;;17.20;9.27;;;;;;;11.63;90.46;101706.00;7398466;19;20038;-66
2022/01/01 08:09:17;;;;;;;16.52;8.98;;;;;;;11.63;89.58;101706.00;7400836;19;20032;-66
2022/01/01 08:11:45;;;;;;;14.35;8.95;;;;;;;11.65;90.15;101698.97;7400934;19;20021;-66
2022/01/01 08:14:14;;;;;;;16.05;9.57;;;;;;;11.67;90.35;101707.69;7400618;19;20014;-66
2022/01/01 08:17:10;;;;;;;13.20;8.07;;;;;;;11.67;87.65;101693.69;7398001;19;20025;-66
2022/01/01 08:19:38;;;;;;;15.95;8.98;;;;;;;11.70;91.68;101688.41;7400742;19;20033;-66
2022/01/01 08:22:07;;;;;;;13.80;8.40;;;;;;;11.72;90.99;101692.75;7400632;19;20018;-66
2022/01/01 08:24:35;;;;;;;13.25;8.40;;;;;;;11.72;91.35;101698.00;7398981;19;20070;-66
2022/01/01 08:27:03;;;;;;;18.90;9.43;;;;;;;11.73;91.00;101696.25;7400472;19;20011;-66
2022/01/01 08:29:32;;;;;;;15.75;9.20;;;;;;;11.75;90.17;101707.59;7400302;19;20021;-66
2022/01/01 08:32:02;;;;;;;14.60;8.63;;;;;;;11.73;88.49;101701.53;7398651;19;20036;-65
2022/01/01 08:34:30;;;;;;;15.05;8.02;;;;;;;11.76;89.53;101700.63;7399803;19;20513;-65
2022/01/01 08:36:59;;;;;;;16.60;8.77;;;;;;;11.73;89.51;101697.13;7399667;19;20480;-65
2022/01/01 08:39:27;;;;;;;17.40;8.02;;;;;;;11.79;90.55;101704.09;7400098;19;20014;-65
2022/01/01 08:41:55;;;;;;;16.33;8.75;;;;;;;11.79;89.86;101709.34;7400096;19;20015;-65
2022/01/01 08:44:24;;;;;;;16.60;11.43;;;;;;;11.80;90.86;101705.78;7398372;19;20382;-66
2022/01/01 08:46:52;;;;;;;17.85;8.98;;;;;;;11.82;88.84;101711.91;7397202;19;20041;-66
2022/01/01 08:49:23;;;;;;;14.25;8.35;;;;;;;11.81;88.68;101714.56;7399728;19;20011;-66
2022/01/01 08:51:55;;;;;;;13.98;8.20;;;;;;;11.81;88.76;101712.81;7399907;19;20022;-65
2022/01/01 08:54:23;;;;;;;12.68;7.72;;;;;;;11.85;90.20;101714.53;7399844;19;20010;-65
2022/01/01 08:56:51;;;;;;;20.15;9.90;;;;;;;11.86;87.83;101718.88;7397110;19;20014;-65
2022/01/01 08:59:20;;;;;;;13.70;8.63;;;;;;;11.89;88.28;101723.22;7399314;19;20033;-65
2022/01/01 09:01:48;;;;;;;16.58;9.52;;;;;;;11.88;87.62;101743.41;7399154;19;20015;-65
2022/01/01 09:04:16;;;;;;;21.15;9.82;;;;;;;11.91;88.63;101729.34;7398602;19;20037;-66
2022/01/01 09:06:47;;;;;;;19.13;8.70;;;;;;;11.91;86.77;101726.72;7396937;19;20018;-64
2022/01/01 09:09:15;;;;;;;17.02;8.95;;;;;;;11.94;88.43;101733.69;7399525;19;20018;-65
2022/01/01 09:11:43;;;;;;;15.38;9.32;;;;;;;11.94;86.81;101744.22;7398980;19;20023;-65
2022/01/01 09:14:12;;;;;;;17.42;9.05;;;;;;;11.98;88.30;101740.69;7398454;19;20365;-65
2022/01/01 09:16:40;;;;;;;19.88;8.90;;;;;;;12.00;87.01;101744.19;7397233;19;20022;-67
2022/01/01 09:19:08;;;;;;;19.98;9.27;;;;;;;12.00;85.43;101755.56;7399407;19;20044;-67
2022/01/01 09:21:37;;;;;;;18.70;9.80;;;;;;;12.04;88.83;101756.41;7398545;19;20487;-66
2022/01/01 09:24:08;;;;;;;18.38;9.77;;;;;;;12.05;86.94;101760.78;7397933;19;20037;-66
2022/01/01 09:26:36;;;;;;;20.33;9.43;;;;;;;12.06;85.92;101765.16;7397547;19;20380;-66
2022/01/01 09:29:06;;;;;;;19.60;9.63;;;;;;;12.09;87.73;101769.50;7399260;19;20010;-66
2022/01/01 09:31:34;;;;;;;17.02;9.48;;;;;;;12.10;87.28;101768.63;7398071;19;20011;-66
2022/01/01 09:34:03;;;;;;;21.40;9.82;;;;;;;12.11;86.55;101765.13;7398330;19;20014;-66
2022/01/01 09:36:32;;;;;;;14.32;9.10;;;;;;;12.13;87.47;101776.47;7396027;19;20025;-66
2022/01/01 09:39:02;;;;;;;23.40;10.05;;;;;;;12.10;88.04;101769.50;7398102;19;20008;-66
2022/01/01 09:41:34;;;;;;;18.38;9.25;;;;;;;12.16;86.66;101779.09;7399568;19;20025;-66
2022/01/01 09:44:02;;;;;;;20.05;9.38;;;;;;;12.15;88.43;101780.81;7397775;19;20014;-66
2022/01/01 09:46:33;;;;;;;19.95;9.75;;;;;;;12.15;84.12;101779.97;7395729;19;20505;-65
2022/01/01 09:49:01;;;;;;;19.92;10.30;;;;;;;12.19;87.68;101787.78;7397427;19;20483;-66
2022/01/01 09:51:29;;;;;;;14.90;9.02;;;;;;;12.21;86.92;101786.03;7397059;19;20361;-66
2022/01/01 09:53:57;;;;;;;17.75;9.07;;;;;;;12.21;87.21;101780.75;7397113;19;20349;-66
2022/01/01 09:56:25;;;;;;;16.88;9.13;;;;;;;12.22;86.24;101793.03;7395587;19;20494;-65
2022/01/01 09:58:56;;;;;;;17.48;8.55;;;;;;;12.21;85.54;101791.28;7395756;19;20492;-66
2022/01/01 10:01:24;;;;;;;21.45;9.27;;;;;;;12.26;86.13;101782.44;7397424;19;20026;-66
2022/01/01 10:03:56;;;;;;;19.58;9.20;;;;;;;12.26;86.76;101780.72;7396979;19;20014;-66
2022/01/01 10:06:28;;;;;;;16.60;9.32;;;;;;;12.27;86.12;101781.56;7395819;19;20029;-66
2022/01/01 10:08:59;;;;;;;17.95;9.27;;;;;;;12.26;84.78;101791.25;7396763;19;20530;-67
2022/01/01 10:11:30;;;;;;;20.65;9.35;;;;;;;12.27;86.90;101792.97;7396715;19;20511;-66
2022/01/01 10:14:01;;;;;;;16.40;8.68;;;;;;;12.29;85.93;101795.59;7397306;19;20086;-65
2022/01/01 10:16:29;;;;;;;21.58;10.18;;;;;;;12.27;84.87;101816.66;7395477;19;20014;-67
2022/01/01 10:18:57;;;;;;;19.20;9.52;;;;;;;12.30;86.05;101815.75;7396858;19;20011;-66
2022/01/01 10:21:28;;;;;;;15.00;9.25;;;;;;;12.30;85.32;101805.22;7396693;19;20032;-66
2022/01/01 10:23:58;;;;;;;19.95;10.27;;;;;;;12.30;86.70;101785.03;7396913;19;20052;-64
2022/01/01 10:29:20;;;;;;;19.30;9.10;;;;;;;12.32;84.96;101775.38;7396588;19;20475;-66
2022/01/01 10:31:58;;;;;;;17.55;9.68;;;;;;;12.33;83.07;101790.28;7395952;19;20006;-65
2022/01/01 10:34:28;;;;;;;18.13;9.15;;;;;;;12.36;86.05;101790.22;7396426;19;20495;-65
2022/01/01 10:36:57;;;;;;;14.50;9.15;;;;;;;12.39;86.25;101794.59;7394503;19;20025;-64
2022/01/01 10:39:26;;;;;;;21.33;10.15;;;;;;;12.40;84.56;101814.75;7396055;19;20019;-65
2022/01/01 10:41:55;;;;;;;16.48;9.38;;;;;;;12.43;85.13;101790.16;7395490;19;20511;-66
2022/01/01 10:44:30;;;;;;;18.65;9.50;;;;;;;12.42;82.02;101812.09;7395609;19;20074;-66
2022/01/01 10:46:59;;;;;;;20.17;9.65;;;;;;;12.42;83.56;101796.31;7396335;19;20027;-66
2022/01/01 10:49:51;;;;;;;19.35;9.25;;;;;;;12.41;82.21;101810.34;7395422;19;20479;-66
2022/01/01 10:52:23;;;;;;;16.98;9.23;;;;;;;12.44;83.91;101819.06;7396008;19;20028;-65
2022/01/01 10:54:54;;;;;;;16.27;9.65;;;;;;;12.44;84.14;101810.31;7395534;19;20018;-65
2022/01/01 10:57:33;;;;;;;19.50;9.15;;;;;;;12.44;82.48;101812.97;7395897;19;20011;-65
2022/01/01 11:00:14;;;;;;;16.92;9.70;;;;;;;12.44;82.44;101802.44;7395522;19;20067;-65
2022/01/01 11:02:45;;;;;;;22.08;10.13;;;;;;;12.46;85.06;101806.78;7395737;19;20010;-65
2022/01/01 11:05:14;;;;;;;18.02;9.05;;;;;;;12.49;84.70;101803.25;7394738;19;20029;-65
2022/01/01 11:07:53;;;;;;;19.52;9.65;;;;;;;12.51;82.86;101804.06;7395207;19;20018;-65
2022/01/01 11:10:22;;;;;;;17.20;9.43;;;;;;;12.52;85.23;101809.34;7395857;19;20107;-64
2022/01/01 11:12:51;;;;;;;18.25;9.45;;;;;;;12.57;86.03;101816.31;7405035;19;20018;-65
2022/01/01 11:15:23;;;;;;;18.45;9.52;;;;;;;12.56;84.23;101812.78;7404166;19;20014;-65
2022/01/01 11:17:52;;;;;;;20.48;10.88;;;;;;;12.57;85.17;101814.53;7402905;19;20014;-65
2022/01/01 11:20:30;;;;;;;15.93;10.85;;;;;;;12.55;82.26;101811.91;7403091;19;20370;-66
2022/01/01 11:22:59;;;;;;;20.00;10.15;;;;;;;12.58;83.56;101815.41;7402808;19;20019;-65
2022/01/01 11:25:27;;;;;;;17.30;9.82;;;;;;;12.58;84.88;101811.00;7401171;19;20019;-66